createdAt,value
2023-02-06T00:01:20.623Z,3.13
2023-02-06T00:03:47.272Z,3.53
2023-02-06T00:06:14.020Z,3.55
2023-02-06T00:08:40.853Z,4.53
2023-02-06T00:11:09.763Z,3.42
2023-02-06T00:13:37.008Z,4.47
2023-02-06T00:16:04.146Z,3.73
2023-02-06T00:18:31.449Z,3.47
2023-02-06T00:20:58.034Z,3.33
2023-02-06T00:23:24.627Z,3.63
2023-02-06T00:25:51.251Z,3.70
2023-02-06T00:28:17.860Z,2.90
2023-02-06T00:30:47.273Z,3.92
2023-02-06T00:33:13.953Z,3.33
2023-02-06T00:35:40.632Z,3.30
2023-02-06T00:38:09.657Z,3.03
2023-02-06T00:40:36.503Z,3.33
2023-02-06T00:43:03.135Z,4.28
2023-02-06T00:45:29.721Z,3.45
2023-02-06T00:47:56.380Z,4.00
2023-02-06T00:50:23.133Z,4.00
2023-02-06T00:52:49.725Z,3.90
2023-02-06T00:55:16.441Z,3.53
2023-02-06T00:57:43.025Z,3.58
2023-02-06T01:00:10.472Z,3.65
2023-02-06T01:02:37.128Z,4.10
2023-02-06T01:05:03.885Z,3.97
2023-02-06T01:07:30.577Z,5.22
2023-02-06T01:09:57.177Z,3.72
2023-02-06T01:12:23.950Z,3.90
2023-02-06T01:14:50.649Z,3.88
2023-02-06T01:17:17.260Z,3.87
2023-02-06T01:19:43.854Z,4.00
2023-02-06T01:22:10.428Z,4.43
2023-02-06T01:24:37.019Z,4.80
2023-02-06T01:27:03.820Z,4.50
2023-02-06T01:29:30.397Z,4.57
2023-02-06T01:31:56.978Z,4.00
2023-02-06T01:34:23.538Z,3.88
2023-02-06T01:36:50.181Z,4.30
2023-02-06T01:39:16.876Z,4.18
2023-02-06T01:41:43.492Z,4.60
2023-02-06T01:44:15.794Z,4.15
2023-02-06T01:46:45.414Z,4.43
2023-02-06T01:49:35.236Z,4.20
2023-02-06T01:52:17.288Z,4.50
2023-02-06T01:54:48.701Z,4.53
2023-02-06T01:57:16.903Z,4.65
2023-02-06T01:59:49.496Z,5.18
2023-02-06T02:02:16.291Z,4.28
2023-02-06T02:04:43.866Z,4.60
2023-02-06T02:07:19.787Z,4.00
2023-02-06T02:09:46.387Z,4.00
2023-02-06T02:12:13.685Z,4.47
2023-02-06T02:14:43.162Z,5.15
2023-02-06T02:17:38.785Z,4.55
2023-02-06T02:20:43.791Z,3.87
2023-02-06T02:23:34.983Z,4.55
2023-02-06T02:26:24.640Z,4.28
2023-02-06T02:29:33.068Z,5.00
2023-02-06T02:32:21.366Z,4.00
2023-02-06T02:35:09.571Z,3.87
2023-02-06T02:37:42.655Z,4.85
2023-02-06T02:40:27.758Z,4.38
2023-02-06T02:43:22.278Z,6.03
2023-02-06T02:45:59.381Z,4.85
2023-02-06T02:48:30.831Z,5.97
2023-02-06T02:50:59.898Z,3.95
2023-02-06T02:53:27.793Z,4.75
2023-02-06T02:55:54.675Z,4.90
2023-02-06T02:58:26.058Z,5.32
2023-02-06T03:01:02.354Z,4.50
2023-02-06T03:03:32.485Z,4.80
2023-02-06T03:06:11.188Z,4.90
2023-02-06T03:08:55.600Z,4.72
2023-02-06T03:11:23.064Z,5.30
2023-02-06T03:14:23.425Z,4.60
2023-02-06T03:17:04.998Z,4.25
2023-02-06T03:19:41.193Z,5.65
2023-02-06T03:22:07.895Z,4.80
2023-02-06T03:24:39.896Z,4.03
2023-02-06T03:27:14.085Z,4.23
2023-02-06T03:29:43.011Z,4.45
2023-02-06T03:32:24.891Z,4.63
2023-02-06T03:35:08.097Z,5.32
2023-02-06T03:37:36.145Z,4.47
2023-02-06T03:40:04.327Z,4.10
2023-02-06T03:42:33.844Z,3.95
2023-02-06T03:45:06.427Z,5.28
2023-02-06T03:47:37.058Z,4.25
2023-02-06T03:50:04.517Z,4.20
2023-02-06T03:52:37.416Z,5.57
2023-02-06T03:55:11.643Z,4.10
2023-02-06T03:57:40.757Z,4.03
2023-02-06T04:00:08.183Z,7.82
2023-02-06T04:02:36.673Z,4.00
2023-02-06T04:05:03.717Z,4.87
2023-02-06T04:07:33.232Z,4.43
2023-02-06T04:10:00.193Z,4.78
2023-02-06T04:12:28.015Z,4.93
2023-02-06T04:14:54.888Z,4.78
2023-02-06T04:17:40.766Z,5.03
2023-02-06T04:20:09.531Z,5.70
2023-02-06T04:22:36.489Z,5.38
2023-02-06T04:25:03.404Z,4.65
2023-02-06T04:27:30.389Z,5.07
2023-02-06T04:29:57.103Z,4.77
2023-02-06T04:32:24.465Z,6.07
2023-02-06T04:34:51.200Z,4.90
2023-02-06T04:37:18.184Z,5.55
2023-02-06T04:39:44.976Z,4.70
2023-02-06T04:42:11.593Z,4.87
2023-02-06T04:44:38.540Z,4.97
2023-02-06T04:47:05.757Z,4.47
2023-02-06T04:49:32.397Z,5.10
2023-02-06T04:51:59.150Z,4.97
2023-02-06T04:54:25.730Z,4.27
2023-02-06T04:56:52.409Z,4.38
2023-02-06T04:59:19.098Z,4.80
2023-02-06T05:01:45.779Z,4.90
2023-02-06T05:04:12.415Z,4.63
2023-02-06T05:06:39.059Z,4.40
2023-02-06T05:09:06.453Z,5.10
2023-02-06T05:11:33.114Z,4.40
2023-02-06T05:13:59.754Z,5.10
2023-02-06T05:16:26.545Z,5.60
2023-02-06T05:18:55.308Z,4.63
2023-02-06T05:21:22.415Z,4.47
2023-02-06T05:23:49.109Z,4.70
2023-02-06T05:26:16.047Z,4.70
2023-02-06T05:28:42.831Z,4.82
2023-02-06T05:31:09.768Z,5.00
2023-02-06T05:33:36.388Z,4.80
2023-02-06T05:36:07.228Z,4.85
2023-02-06T05:38:34.237Z,5.18
2023-02-06T05:41:01.048Z,4.75
2023-02-06T05:43:27.617Z,4.13
2023-02-06T05:45:54.218Z,4.97
2023-02-06T05:48:20.843Z,4.70
2023-02-06T05:50:50.313Z,4.55
2023-02-06T05:53:17.755Z,4.80
2023-02-06T05:55:44.396Z,4.87
2023-02-06T05:58:11.130Z,4.88
2023-02-06T06:00:37.705Z,5.10
2023-02-06T06:03:04.415Z,4.90
2023-02-06T06:05:30.972Z,5.38
2023-02-06T06:07:58.253Z,4.53
2023-02-06T06:10:31.432Z,4.32
2023-02-06T06:13:01.309Z,5.65
2023-02-06T06:15:31.132Z,5.43
2023-02-06T06:18:05.260Z,5.03
2023-02-06T06:20:39.671Z,5.23
2023-02-06T06:23:10.466Z,4.63
2023-02-06T06:25:41.607Z,5.03
2023-02-06T06:28:14.774Z,4.72
2023-02-06T06:30:48.820Z,4.85
2023-02-06T06:33:26.736Z,4.67
2023-02-06T06:35:56.143Z,5.30
2023-02-06T06:38:26.461Z,6.32
2023-02-06T06:40:55.033Z,5.25
2023-02-06T06:43:21.969Z,5.25
2023-02-06T06:45:54.721Z,6.10
2023-02-06T06:48:21.652Z,5.20
2023-02-06T06:50:51.523Z,6.15
2023-02-06T06:53:18.885Z,5.10
2023-02-06T06:55:45.499Z,5.85
2023-02-06T06:58:12.066Z,6.43
2023-02-06T07:00:39.957Z,4.47
2023-02-06T07:03:07.131Z,5.35
2023-02-06T07:05:35.036Z,7.15
2023-02-06T07:08:01.802Z,6.72
2023-02-06T07:10:28.442Z,6.47
2023-02-06T07:12:56.560Z,5.22
2023-02-06T07:15:23.603Z,5.30
2023-02-06T07:17:50.196Z,6.07
2023-02-06T07:20:16.937Z,6.47
2023-02-06T07:22:43.601Z,5.03
2023-02-06T07:25:10.229Z,5.38
2023-02-06T07:27:36.802Z,5.20
2023-02-06T07:30:06.154Z,6.15
2023-02-06T07:32:36.026Z,4.45
2023-02-06T07:35:02.901Z,5.00
2023-02-06T07:37:29.578Z,4.97
2023-02-06T07:39:56.271Z,6.68
2023-02-06T07:42:22.933Z,6.13
2023-02-06T07:44:49.545Z,6.05
2023-02-06T07:47:16.635Z,5.43
2023-02-06T07:49:43.245Z,5.68
2023-02-06T07:52:09.838Z,5.65
2023-02-06T07:54:36.438Z,4.85
2023-02-06T07:57:03.042Z,5.00
2023-02-06T07:59:29.742Z,5.70
2023-02-06T08:01:56.371Z,5.45
2023-02-06T08:04:22.990Z,4.80
2023-02-06T08:06:49.630Z,5.53
2023-02-06T08:09:17.534Z,5.35
2023-02-06T08:11:44.536Z,5.53
2023-02-06T08:14:11.547Z,5.35
2023-02-06T08:16:39.403Z,4.70
2023-02-06T08:19:06.957Z,5.85
2023-02-06T08:21:33.596Z,5.07
2023-02-06T08:24:00.992Z,4.60
2023-02-06T08:26:29.739Z,4.88
2023-02-06T08:28:57.957Z,6.95
2023-02-06T08:31:31.571Z,4.65
2023-02-06T08:33:58.279Z,5.57
2023-02-06T08:36:25.776Z,4.77
2023-02-06T08:38:53.181Z,4.93
2023-02-06T08:41:25.836Z,4.90
2023-02-06T08:43:58.399Z,5.45
2023-02-06T08:46:28.501Z,4.65
2023-02-06T08:48:56.765Z,4.90
2023-02-06T08:51:23.471Z,5.43
2023-02-06T08:53:50.044Z,5.15
2023-02-06T08:56:16.633Z,5.13
2023-02-06T08:58:43.284Z,5.22
2023-02-06T09:01:19.493Z,4.63
2023-02-06T09:03:47.368Z,4.80
2023-02-06T09:06:15.085Z,5.57
2023-02-06T09:08:42.569Z,5.45
2023-02-06T09:11:18.484Z,5.05
2023-02-06T09:13:49.936Z,6.43
2023-02-06T09:16:20.467Z,4.15
2023-02-06T09:18:48.266Z,5.18
2023-02-06T09:21:17.305Z,6.75
2023-02-06T09:23:49.016Z,5.35
2023-02-06T09:26:19.149Z,6.87
2023-02-06T09:28:45.774Z,4.80
2023-02-06T09:31:12.553Z,5.88
2023-02-06T09:33:40.094Z,4.90
2023-02-06T09:36:11.245Z,5.95
2023-02-06T09:38:43.214Z,5.60
2023-02-06T09:42:08.777Z,5.30
2023-02-06T09:44:35.344Z,5.65
2023-02-06T09:47:09.502Z,5.45
2023-02-06T09:49:40.552Z,5.18
2023-02-06T09:52:20.273Z,5.00
2023-02-06T09:55:01.622Z,6.15
2023-02-06T09:58:06.331Z,6.43
2023-02-06T10:00:45.028Z,6.15
2023-02-06T10:03:29.106Z,5.47
2023-02-06T10:06:02.846Z,5.50
2023-02-06T10:08:38.156Z,5.95
2023-02-06T10:11:15.990Z,5.63
2023-02-06T10:13:51.821Z,6.35
2023-02-06T10:16:33.102Z,6.93
2023-02-06T10:19:05.495Z,6.63
2023-02-06T10:21:42.762Z,6.90
2023-02-06T10:24:31.997Z,7.90
2023-02-06T10:27:03.076Z,9.55
2023-02-06T10:29:34.839Z,9.77
2023-02-06T10:32:13.081Z,8.20
2023-02-06T10:34:45.456Z,9.05
2023-02-06T10:37:24.305Z,10.05
2023-02-06T10:40:02.110Z,10.10
2023-02-06T10:42:49.225Z,9.30
2023-02-06T10:45:40.066Z,8.83
2023-02-06T10:48:24.912Z,10.05
2023-02-06T10:50:58.216Z,12.20
2023-02-06T10:53:35.364Z,10.30
2023-02-06T10:56:06.931Z,11.18
2023-02-06T10:58:40.640Z,11.57
2023-02-06T11:01:24.761Z,10.82
2023-02-06T11:04:12.309Z,12.75
2023-02-06T11:06:42.542Z,12.55
2023-02-06T11:09:10.324Z,11.48
2023-02-06T11:11:40.624Z,9.97
2023-02-06T11:14:18.632Z,10.10
2023-02-06T11:16:46.900Z,11.05
2023-02-06T11:19:30.949Z,11.52
2023-02-06T11:22:12.672Z,10.80
2023-02-06T11:24:59.692Z,11.07
2023-02-06T11:27:27.686Z,10.68
2023-02-06T11:29:54.580Z,12.02
2023-02-06T11:32:38.032Z,10.55
2023-02-06T11:35:28.240Z,10.57
2023-02-06T11:38:05.938Z,11.10
2023-02-06T11:40:32.527Z,10.30
2023-02-06T11:43:22.020Z,10.15
2023-02-06T11:45:52.307Z,10.35
2023-02-06T11:48:43.839Z,9.73
2023-02-06T11:51:11.776Z,10.10
2023-02-06T11:53:39.003Z,10.25
2023-02-06T11:56:14.836Z,9.75
2023-02-06T11:58:41.443Z,11.35
2023-02-06T12:01:18.019Z,10.43
2023-02-06T12:03:50.566Z,11.47
2023-02-06T12:06:34.901Z,9.80
2023-02-06T12:09:05.922Z,9.30
2023-02-06T12:11:57.850Z,10.60
2023-02-06T12:14:39.750Z,9.77
2023-02-06T12:17:22.389Z,11.10
2023-02-06T12:19:56.717Z,9.27
2023-02-06T12:22:24.830Z,9.40
2023-02-06T12:24:55.184Z,9.10
2023-02-06T12:27:39.145Z,9.73
2023-02-06T12:30:20.871Z,9.07
2023-02-06T12:32:53.712Z,9.10
2023-02-06T12:35:49.565Z,8.00
2023-02-06T12:38:55.741Z,9.77
2023-02-06T12:41:28.306Z,8.93
2023-02-06T12:44:18.357Z,8.87
2023-02-06T12:46:47.510Z,9.02
2023-02-06T12:49:23.557Z,9.38
2023-02-06T12:51:55.391Z,8.95
2023-02-06T12:54:28.416Z,8.45
2023-02-06T12:57:04.906Z,7.87
2023-02-06T12:59:58.063Z,9.10
2023-02-06T13:02:39.939Z,7.93
2023-02-06T13:05:28.071Z,9.10
2023-02-06T13:08:02.742Z,9.55
2023-02-06T13:10:29.428Z,8.33
2023-02-06T13:12:58.599Z,8.68
2023-02-06T13:15:36.225Z,9.02
2023-02-06T13:18:03.191Z,8.68
2023-02-06T13:20:31.838Z,9.45
2023-02-06T13:23:11.581Z,8.67
2023-02-06T13:25:38.359Z,8.25
2023-02-06T13:28:23.397Z,8.35
2023-02-06T13:31:00.564Z,7.95
2023-02-06T13:33:58.333Z,9.18
2023-02-06T13:36:26.937Z,7.63
2023-02-06T13:39:12.594Z,7.93
2023-02-06T13:41:42.267Z,8.98
2023-02-06T13:44:19.933Z,7.55
2023-02-06T13:47:24.116Z,7.82
2023-02-06T13:49:53.809Z,7.87
2023-02-06T13:52:32.960Z,7.97
2023-02-06T13:55:23.234Z,8.23
2023-02-06T13:58:05.882Z,7.32
2023-02-06T14:00:38.279Z,7.88
2023-02-06T14:03:23.709Z,7.87
2023-02-06T14:06:27.906Z,7.75
2023-02-06T14:09:43.891Z,7.13
2023-02-06T14:12:38.884Z,8.57
2023-02-06T14:15:16.560Z,6.68
2023-02-06T14:17:45.132Z,7.63
2023-02-06T14:20:37.888Z,7.07
2023-02-06T14:23:38.986Z,7.53
2023-02-06T14:26:26.757Z,7.07
2023-02-06T14:28:59.413Z,7.50
2023-02-06T14:31:26.800Z,7.70
2023-02-06T14:34:21.154Z,6.43
2023-02-06T14:37:36.241Z,7.50
2023-02-06T14:40:10.419Z,7.18
2023-02-06T14:42:43.237Z,6.68
2023-02-06T14:45:24.711Z,7.30
2023-02-06T14:47:52.778Z,7.75
2023-02-06T14:50:25.006Z,8.02
2023-02-06T14:52:58.527Z,6.72
2023-02-06T14:55:32.609Z,6.70
2023-02-06T14:57:59.577Z,7.23
2023-02-06T15:00:27.310Z,7.78
2023-02-06T15:03:05.986Z,7.85
2023-02-06T15:05:33.347Z,7.95
2023-02-06T15:08:02.151Z,7.78
2023-02-06T15:10:34.124Z,8.13
2023-02-06T15:13:01.032Z,8.45
2023-02-06T15:15:30.308Z,8.27
2023-02-06T15:17:56.884Z,7.68
2023-02-06T15:20:43.326Z,7.65
2023-02-06T15:23:26.838Z,10.30
2023-02-06T15:25:59.356Z,6.70
2023-02-06T15:28:31.512Z,7.35
2023-02-06T15:31:00.730Z,7.25
2023-02-06T15:33:31.198Z,8.35
2023-02-06T15:36:00.557Z,8.57
2023-02-06T15:38:29.599Z,7.63
2023-02-06T15:41:00.434Z,8.00
2023-02-06T15:43:28.018Z,7.10
2023-02-06T15:45:57.755Z,6.97
2023-02-06T15:48:30.864Z,6.47
2023-02-06T15:51:00.639Z,7.32
2023-02-06T15:53:42.590Z,7.72
2023-02-06T15:56:24.129Z,6.28
2023-02-06T15:58:58.138Z,7.00
2023-02-06T16:01:26.569Z,7.30
2023-02-06T16:03:57.984Z,6.75
2023-02-06T16:06:24.752Z,7.45
2023-02-06T16:09:02.885Z,7.47
2023-02-06T16:11:47.769Z,6.88
2023-02-06T16:14:23.398Z,6.47
2023-02-06T16:16:58.787Z,6.68
2023-02-06T16:19:38.904Z,7.13
2023-02-06T16:22:27.009Z,6.65
2023-02-06T16:25:12.792Z,7.38
2023-02-06T16:27:45.223Z,6.67
2023-02-06T16:30:26.655Z,8.20
2023-02-06T16:32:55.468Z,6.55
2023-02-06T16:35:23.345Z,7.90
2023-02-06T16:37:51.152Z,6.75
2023-02-06T16:40:18.452Z,5.53
2023-02-06T16:42:47.508Z,6.25
2023-02-06T16:45:23.420Z,6.53
2023-02-06T16:47:50.368Z,6.55
2023-02-06T16:50:17.208Z,6.57
2023-02-06T16:52:55.277Z,6.17
2023-02-06T16:55:24.385Z,5.85
2023-02-06T16:57:55.118Z,6.75
2023-02-06T17:00:31.445Z,6.15
2023-02-06T17:02:59.088Z,7.00
2023-02-06T17:05:27.514Z,6.70
2023-02-06T17:07:55.058Z,6.53
2023-02-06T17:10:25.168Z,5.85
2023-02-06T17:12:52.223Z,6.63
2023-02-06T17:15:19.723Z,6.43
2023-02-06T17:17:47.124Z,6.00
2023-02-06T17:20:38.478Z,5.65
2023-02-06T17:23:05.449Z,6.05
2023-02-06T17:25:32.863Z,5.88
2023-02-06T17:28:01.639Z,6.45
2023-02-06T17:30:28.510Z,5.93
2023-02-06T17:32:56.264Z,5.55
2023-02-06T17:35:23.063Z,6.32
2023-02-06T17:37:51.416Z,6.15
2023-02-06T17:40:27.518Z,6.32
2023-02-06T17:42:54.458Z,6.17
2023-02-06T17:45:21.075Z,6.57
2023-02-06T17:47:47.737Z,6.57
2023-02-06T17:50:20.249Z,7.63
2023-02-06T17:52:48.643Z,9.80
2023-02-06T17:55:16.291Z,6.27
2023-02-06T17:57:43.476Z,6.47
2023-02-06T18:00:14.724Z,5.82
2023-02-06T18:02:41.457Z,6.05
2023-02-06T18:05:08.923Z,5.95
2023-02-06T18:07:37.926Z,6.30
2023-02-06T18:10:05.514Z,7.68
2023-02-06T18:12:32.186Z,6.30
2023-02-06T18:14:59.014Z,6.47
2023-02-06T18:17:25.929Z,6.63
2023-02-06T18:19:52.623Z,6.70
2023-02-06T18:22:21.531Z,8.30
2023-02-06T18:24:49.385Z,6.28
2023-02-06T18:27:16.580Z,6.18
2023-02-06T18:29:50.522Z,6.30
2023-02-06T18:32:18.821Z,6.53
2023-02-06T18:34:45.673Z,6.43
2023-02-06T18:37:12.274Z,5.85
2023-02-06T18:39:39.572Z,7.68
2023-02-06T18:42:25.389Z,5.72
2023-02-06T18:44:52.259Z,7.37
2023-02-06T18:47:19.788Z,6.43
2023-02-06T18:49:46.760Z,6.75
2023-02-06T18:52:14.128Z,6.97
2023-02-06T18:54:40.739Z,6.72
2023-02-06T18:57:07.331Z,6.60
2023-02-06T18:59:34.708Z,6.95
2023-02-06T19:02:01.891Z,6.00
2023-02-06T19:04:28.525Z,6.75
2023-02-06T19:06:55.141Z,6.38
2023-02-06T19:09:21.777Z,7.17
2023-02-06T19:11:48.526Z,6.40
2023-02-06T19:14:17.013Z,5.85
2023-02-06T19:16:48.042Z,6.55
2023-02-06T19:19:14.915Z,6.25
2023-02-06T19:21:43.250Z,6.10
2023-02-06T19:24:15.484Z,6.72
2023-02-06T19:26:42.223Z,6.65
2023-02-06T19:29:09.501Z,6.55
2023-02-06T19:31:39.097Z,6.00
2023-02-06T19:34:06.588Z,5.80
2023-02-06T19:36:33.226Z,5.85
2023-02-06T19:39:02.427Z,6.10
2023-02-06T19:41:31.196Z,6.55
2023-02-06T19:44:01.308Z,6.63
2023-02-06T19:46:27.990Z,6.53
2023-02-06T19:48:55.715Z,5.85
2023-02-06T19:51:29.486Z,5.97
2023-02-06T19:53:57.612Z,6.00
2023-02-06T19:56:27.273Z,6.35
2023-02-06T19:58:58.994Z,6.40
2023-02-06T20:01:26.768Z,6.13
2023-02-06T20:03:53.391Z,6.05
2023-02-06T20:06:21.328Z,6.45
2023-02-06T20:08:48.190Z,6.50
2023-02-06T20:11:17.752Z,7.33
2023-02-06T20:13:46.113Z,5.88
2023-02-06T20:16:24.190Z,6.55
2023-02-06T20:18:50.960Z,6.80
2023-02-06T20:21:31.272Z,5.88
2023-02-06T20:24:00.479Z,6.10
2023-02-06T20:26:31.827Z,6.75
2023-02-06T20:28:59.436Z,6.95
2023-02-06T20:31:26.635Z,6.57
2023-02-06T20:33:53.652Z,6.55
2023-02-06T20:36:23.510Z,6.73
2023-02-06T20:38:52.552Z,7.22
2023-02-06T20:41:22.137Z,5.97
2023-02-06T20:43:48.732Z,6.45
2023-02-06T20:46:17.298Z,7.15
2023-02-06T20:48:45.920Z,7.60
2023-02-06T20:51:14.092Z,6.95
2023-02-06T20:53:41.252Z,5.65
2023-02-06T20:56:14.539Z,6.85
2023-02-06T20:58:41.962Z,6.70
2023-02-06T21:01:23.163Z,6.80
2023-02-06T21:03:51.883Z,6.32
2023-02-06T21:06:18.679Z,6.40
2023-02-06T21:08:47.141Z,7.72
2023-02-06T21:11:14.143Z,6.38
2023-02-06T21:13:41.416Z,6.13
2023-02-06T21:16:09.259Z,7.00
2023-02-06T21:18:36.351Z,6.50
2023-02-06T21:21:09.484Z,6.30
2023-02-06T21:23:40.451Z,7.03
2023-02-06T21:26:08.375Z,6.00
2023-02-06T21:28:37.060Z,7.20
2023-02-06T21:31:09.729Z,7.00
2023-02-06T21:33:37.161Z,6.93
2023-02-06T21:36:06.942Z,6.85
2023-02-06T21:38:35.025Z,6.37
2023-02-06T21:41:10.097Z,6.20
2023-02-06T21:43:36.842Z,6.40
2023-02-06T21:46:03.714Z,6.40
2023-02-06T21:48:30.829Z,6.30
2023-02-06T21:50:57.762Z,6.70
2023-02-06T21:53:24.517Z,6.38
2023-02-06T21:55:51.177Z,6.55
2023-02-06T21:58:17.924Z,7.93
2023-02-06T22:00:47.487Z,7.18
2023-02-06T22:03:14.978Z,6.37
2023-02-06T22:05:41.717Z,6.63
2023-02-06T22:08:08.321Z,6.68
2023-02-06T22:10:36.965Z,6.30
2023-02-06T22:13:04.920Z,5.82
2023-02-06T22:15:32.197Z,6.40
2023-02-06T22:17:58.793Z,7.35
2023-02-06T22:20:25.366Z,6.40
2023-02-06T22:22:53.406Z,6.82
2023-02-06T22:25:20.355Z,6.28
2023-02-06T22:27:47.073Z,6.87
2023-02-06T22:30:14.101Z,6.25
2023-02-06T22:32:40.825Z,6.40
2023-02-06T22:35:07.618Z,6.32
2023-02-06T22:37:34.608Z,6.55
2023-02-06T22:40:01.186Z,6.80
2023-02-06T22:42:27.794Z,6.10
2023-02-06T22:44:54.515Z,6.30
2023-02-06T22:47:21.112Z,6.65
2023-02-06T22:49:50.631Z,6.65
2023-02-06T22:52:35.697Z,6.37
2023-02-06T22:55:04.219Z,6.38
2023-02-06T22:57:30.904Z,7.30
2023-02-06T22:59:57.491Z,7.18
2023-02-06T23:02:24.074Z,6.80
2023-02-06T23:04:50.664Z,7.03
2023-02-06T23:07:17.260Z,7.30
2023-02-06T23:09:44.108Z,6.80
2023-02-06T23:12:11.677Z,6.40
2023-02-06T23:14:38.413Z,7.05
2023-02-06T23:17:05.067Z,6.33
2023-02-06T23:19:31.981Z,6.30
2023-02-06T23:21:58.561Z,6.95
2023-02-06T23:24:25.155Z,7.47
2023-02-06T23:26:53.696Z,6.35
2023-02-06T23:29:22.173Z,6.93
2023-02-06T23:31:49.179Z,7.00
2023-02-06T23:34:17.663Z,6.30
2023-02-06T23:36:44.602Z,7.68
2023-02-06T23:39:12.021Z,6.82
2023-02-06T23:41:38.894Z,6.73
2023-02-06T23:44:07.073Z,6.35
2023-02-06T23:46:36.240Z,6.70
2023-02-06T23:49:03.343Z,6.15
2023-02-06T23:51:29.989Z,7.15
2023-02-06T23:53:56.608Z,6.13
2023-02-06T23:56:28.684Z,7.75
2023-02-06T23:58:57.028Z,7.53
